Time;durP1;ratioP1;P1;durP2;ratioP2;P2;SDS_P1;SDS_P2;PMS_P1;PMS_P2;Temp;Humidity;BMP_temperature;BMP_pressure;BME280_temperature;BME280_humidity;BME280_pressure;Samples;Min_cycle;Max_cycle;Signal;HPM_P1;HPM_P2
2021/12/29 00:02:12;;;;;;;2.07;1.30;;;;;;;4.38;100.00;94721.03;5094732;28;20796;-75
2021/12/29 00:04:39;;;;;;;1.67;1.20;;;;;;;4.51;100.00;94726.28;5077549;28;20976;-76
2021/12/29 00:07:06;;;;;;;1.97;1.23;;;;;;;4.62;100.00;94736.00;5112214;28;20442;-75
2021/12/29 00:09:36;;;;;;;1.27;0.90;;;;;;;4.44;100.00;94724.22;5094187;28;20535;-75
2021/12/29 00:12:04;;;;;;;2.90;1.17;;;;;;;4.64;100.00;94743.50;5094286;28;20525;-75
2021/12/29 00:14:30;;;;;;;0.80;0.80;;;;;;;4.57;100.00;94740.69;5094111;28;20533;-75
2021/12/29 00:16:58;;;;;;;1.50;0.93;;;;;;;4.51;100.00;94740.13;5077223;28;20445;-75
2021/12/29 00:19:27;;;;;;;1.93;1.20;;;;;;;4.64;100.00;94757.34;5077284;28;20859;-75
2021/12/29 00:21:53;;;;;;;1.00;0.90;;;;;;;4.68;100.00;94760.09;5093969;28;20427;-75
2021/12/29 00:24:20;;;;;;;2.63;0.80;;;;;;;4.55;100.00;94741.03;5094040;28;20499;-75
2021/12/29 00:26:47;;;;;;;0.80;0.80;;;;;;;4.64;100.00;94753.97;5112264;28;20846;-75
2021/12/29 00:29:14;;;;;;;1.20;1.10;;;;;;;4.63;100.00;94755.06;5076114;28;20458;-75
2021/12/29 00:31:48;;;;;;;2.80;1.43;;;;;;;4.66;100.00;94757.78;5093672;28;20993;-75
2021/12/29 00:34:50;;;;;;;1.73;1.10;;;;;;;4.68;100.00;94757.50;5111783;28;20458;-75
2021/12/29 00:37:35;;;;;;;2.80;0.90;;;;;;;4.78;100.00;94777.97;5111789;28;20445;-75
2021/12/29 00:40:20;;;;;;;1.27;0.77;;;;;;;4.44;100.00;94737.28;5096971;28;20555;-75
2021/12/29 00:43:19;;;;;;;1.80;0.93;;;;;;;4.65;100.00;94779.06;5074931;28;20544;-74
2021/12/29 00:46:11;;;;;;;3.23;1.00;;;;;;;4.63;100.00;94779.38;5097119;28;20949;-74
2021/12/29 00:48:42;;;;;;;1.20;1.10;;;;;;;4.74;100.00;94796.19;5111753;28;20511;-79
2021/12/29 00:51:10;;;;;;;1.30;1.20;;;;;;;4.51;100.00;94762.91;5093518;28;20426;-74
2021/12/29 00:53:37;;;;;;;2.00;1.40;;;;;;;4.83;100.00;94811.81;5093472;28;20443;-75
2021/12/29 00:56:05;;;;;;;2.90;1.00;;;;;;;4.75;100.00;94802.97;5092405;28;20450;-74
2021/12/29 00:58:32;;;;;;;4.20;1.33;;;;;;;4.80;100.00;94806.44;5076569;28;20450;-74
2021/12/29 01:01:00;;;;;;;2.10;1.10;;;;;;;4.87;100.00;94823.16;5093354;28;20438;-74
2021/12/29 01:03:27;;;;;;;2.60;1.00;;;;;;;4.91;100.00;94824.00;5111594;28;20436;-75
2021/12/29 01:05:54;;;;;;;2.97;1.60;;;;;;;4.82;100.00;94804.28;5093917;28;20483;-75
2021/12/29 01:08:21;;;;;;;4.30;1.00;;;;;;;5.00;100.00;94829.16;5111752;28;20507;-75
2021/12/29 01:10:48;;;;;;;1.07;1.03;;;;;;;4.95;100.00;94822.28;5111756;28;20534;-74
2021/12/29 01:13:19;;;;;;;1.77;1.07;;;;;;;5.09;100.00;94818.59;5076382;28;20463;-75
2021/12/29 01:15:59;;;;;;;1.10;0.90;;;;;;;5.00;100.00;94802.97;5111645;28;20426;-75
2021/12/29 01:18:26;;;;;;;1.57;1.43;;;;;;;5.15;100.00;94836.38;5093852;28;20472;-75
2021/12/29 01:20:54;;;;;;;1.10;1.00;;;;;;;5.00;100.00;94839.63;5093441;28;20474;-75
2021/12/29 01:23:22;;;;;;;1.83;1.37;;;;;;;4.98;100.00;94841.81;5111667;28;20454;-75
2021/12/29 01:25:49;;;;;;;7.03;1.37;;;;;;;5.00;100.00;94845.63;5111523;28;20496;-75
2021/12/29 01:28:16;;;;;;;4.53;1.83;;;;;;;4.99;100.00;94859.06;5093327;28;20454;-75
2021/12/29 01:30:43;;;;;;;3.97;1.77;;;;;;;4.86;100.00;94866.13;5092982;28;20434;-75
2021/12/29 01:33:10;;;;;;;2.97;1.80;;;;;;;4.75;100.00;94878.88;5093070;28;20462;-75
2021/12/29 01:35:58;;;;;;;1.63;1.53;;;;;;;4.59;100.00;94859.66;5076352;28;20928;-75
2021/12/29 01:38:25;;;;;;;3.67;2.13;;;;;;;4.53;100.00;94868.78;5012076;28;20501;-75
2021/12/29 01:40:51;;;;;;;5.20;1.47;;;;;;;4.64;100.00;94869.91;4997975;28;20465;-75
2021/12/29 01:43:18;;;;;;;1.83;1.20;;;;;;;4.77;100.00;94868.06;5016022;28;20481;-75
2021/12/29 01:45:46;;;;;;;2.60;1.30;;;;;;;4.98;100.00;94881.88;5015628;28;20533;-75
2021/12/29 01:48:13;;;;;;;3.00;1.73;;;;;;;5.00;100.00;94892.00;5015306;28;20454;-75
2021/12/29 01:50:40;;;;;;;4.50;1.73;;;;;;;4.89;100.00;94870.72;5015499;28;20450;-75
2021/12/29 01:53:09;;;;;;;3.00;1.17;;;;;;;4.93;100.00;94883.91;5015597;28;20445;-75
2021/12/29 01:55:38;;;;;;;3.00;1.27;;;;;;;5.06;100.00;94901.19;4999013;28;20462;-75
2021/12/29 01:58:06;;;;;;;2.90;1.20;;;;;;;5.04;100.00;94903.34;4999113;28;20531;-75
2021/12/29 02:00:37;;;;;;;1.77;0.93;;;;;;;5.11;100.00;94905.44;5015659;28;20438;-75
2021/12/29 02:03:07;;;;;;;1.90;1.20;;;;;;;4.99;100.00;94916.66;5014994;28;20953;-75
2021/12/29 02:05:38;;;;;;;1.63;1.00;;;;;;;4.72;100.00;94895.22;5031753;28;20940;-75
2021/12/29 02:08:06;;;;;;;2.67;0.90;;;;;;;4.71;100.00;94909.41;5015588;28;20445;-75
2021/12/29 02:10:41;;;;;;;2.60;0.90;;;;;;;4.66;100.00;94899.13;5015004;28;20470;-75
2021/12/29 02:13:10;;;;;;;1.37;1.13;;;;;;;4.53;100.00;94887.09;5015211;28;21054;-75
2021/12/29 02:15:37;;;;;;;1.83;1.20;;;;;;;4.68;100.00;94909.31;5077285;28;20492;-76
2021/12/29 02:18:12;;;;;;;2.07;0.90;;;;;;;4.73;100.00;94906.47;5096128;28;20538;-75
2021/12/29 02:20:46;;;;;;;3.13;0.80;;;;;;;4.93;100.00;94920.56;5096230;28;20483;-75
2021/12/29 02:23:27;;;;;;;1.70;1.07;;;;;;;4.84;100.00;94930.38;5096144;28;20453;-75
2021/12/29 02:25:56;;;;;;;1.10;0.83;;;;;;;4.86;100.00;94925.59;5079473;28;20439;-75
2021/12/29 02:28:31;;;;;;;0.70;0.70;;;;;;;4.96;100.00;94919.94;5095960;28;20450;-75
2021/12/29 02:30:59;;;;;;;3.07;1.10;;;;;;;5.01;100.00;94943.28;5079050;28;20952;-75
2021/12/29 02:33:30;;;;;;;0.80;0.70;;;;;;;4.86;100.00;94923.72;5095880;28;20487;-75
2021/12/29 02:35:58;;;;;;;0.70;0.70;;;;;;;4.92;100.00;94926.91;5095824;28;20462;-75
2021/12/29 02:38:31;;;;;;;1.07;0.90;;;;;;;5.01;100.00;94945.91;5114108;28;20503;-75
2021/12/29 02:41:03;;;;;;;0.70;0.70;;;;;;;4.97;100.00;94951.03;5095720;28;20501;-75
2021/12/29 02:43:32;;;;;;;0.80;0.80;;;;;;;5.02;100.00;94966.53;5078949;28;20905;-75
2021/12/29 02:45:59;;;;;;;1.10;0.83;;;;;;;5.02;100.00;94963.91;5095610;28;20567;-75
2021/12/29 02:48:33;;;;;;;0.90;0.80;;;;;;;4.91;100.00;94965.41;5078557;28;20458;-75
2021/12/29 02:51:01;;;;;;;1.30;0.90;;;;;;;4.87;100.00;94953.31;5113726;28;20415;-75
2021/12/29 02:53:28;;;;;;;0.80;0.80;;;;;;;4.98;100.00;94967.53;5095049;28;20462;-75
2021/12/29 02:55:55;;;;;;;1.00;0.90;;;;;;;5.01;100.00;94978.09;5095288;28;20495;-75
2021/12/29 02:58:23;;;;;;;0.90;0.77;;;;;;;4.92;100.00;94977.41;5095403;28;20523;-75
2021/12/29 03:00:52;;;;;;;1.90;1.03;;;;;;;4.91;100.00;94993.47;5078342;28;20447;-75
2021/12/29 03:03:22;;;;;;;1.20;1.10;;;;;;;4.82;100.00;94998.78;5095316;28;20431;-75
2021/12/29 03:05:50;;;;;;;1.13;0.83;;;;;;;4.78;100.00;94992.66;5095144;28;20503;-75
2021/12/29 03:08:18;;;;;;;0.80;0.70;;;;;;;4.75;100.00;94986.19;5078403;28;20498;-75
2021/12/29 03:10:46;;;;;;;1.20;0.90;;;;;;;4.87;100.00;95009.06;5095087;28;20458;-75
2021/12/29 03:13:13;;;;;;;0.90;0.77;;;;;;;4.84;100.00;95001.09;5095049;28;20791;-75
2021/12/29 03:15:40;;;;;;;1.07;0.97;;;;;;;4.77;100.00;95022.53;5113588;28;20973;-76
2021/12/29 03:18:07;;;;;;;0.80;0.80;;;;;;;4.67;100.00;95015.06;5078262;28;20451;-75
2021/12/29 03:20:34;;;;;;;0.90;0.80;;;;;;;4.63;100.00;95022.03;5094954;28;20479;-75
2021/12/29 03:23:01;;;;;;;1.10;0.90;;;;;;;4.46;100.00;94994.16;5078349;28;20438;-75
2021/12/29 03:25:28;;;;;;;0.80;0.80;;;;;;;4.48;100.00;95009.53;5078257;28;20489;-75
2021/12/29 03:28:00;;;;;;;1.40;0.90;;;;;;;4.41;100.00;95010.06;5078004;28;20513;-75
2021/12/29 03:30:28;;;;;;;1.07;0.90;;;;;;;4.59;100.00;95018.53;5078002;28;20783;-75
2021/12/29 03:33:03;;;;;;;1.07;0.93;;;;;;;4.82;100.00;95024.97;5094573;28;20518;-75
2021/12/29 03:35:35;;;;;;;1.83;1.00;;;;;;;4.80;100.00;95026.34;5094879;28;20893;-75
2021/12/29 03:38:05;;;;;;;1.60;0.80;;;;;;;4.84;100.00;95024.66;5094504;28;20508;-75
2021/12/29 03:40:35;;;;;;;1.30;1.20;;;;;;;4.60;100.00;95006.97;5094451;28;20439;-75
2021/12/29 03:43:04;;;;;;;1.23;0.80;;;;;;;4.74;100.00;95023.94;5094588;28;20454;-75
2021/12/29 03:45:32;;;;;;;3.07;1.63;;;;;;;4.56;100.00;95040.09;5094412;28;20438;-75
2021/12/29 03:47:59;;;;;;;7.70;1.40;;;;;;;4.30;100.00;95035.81;5094286;28;20461;-75
2021/12/29 03:50:26;;;;;;;5.83;2.03;;;;;;;4.20;100.00;95032.78;5077640;28;20491;-76
2021/12/29 03:52:52;;;;;;;1.27;1.17;;;;;;;4.37;100.00;95024.81;5094701;28;20430;-75
2021/12/29 03:55:19;;;;;;;2.40;1.10;;;;;;;4.51;100.00;95021.97;5094867;28;20460;-75
2021/12/29 03:57:46;;;;;;;0.80;0.80;;;;;;;4.83;100.00;95050.06;5094818;28;20529;-75
2021/12/29 04:00:15;;;;;;;0.93;0.90;;;;;;;4.86;100.00;95044.19;5077700;28;20477;-75
2021/12/29 04:02:42;;;;;;;1.47;1.10;;;;;;;4.85;100.00;95029.56;5077492;28;20520;-75
2021/12/29 04:05:12;;;;;;;0.80;0.80;;;;;;;4.95;100.00;95042.25;5094565;28;20496;-75
2021/12/29 04:07:39;;;;;;;1.60;1.10;;;;;;;5.01;100.00;95055.91;5093885;28;20494;-75
2021/12/29 04:10:08;;;;;;;2.80;1.10;;;;;;;4.83;100.00;95034.34;5077346;28;20466;-75
2021/12/29 04:12:35;;;;;;;2.17;1.20;;;;;;;4.88;100.00;95038.63;5112421;28;20937;-75
2021/12/29 04:15:03;;;;;;;1.80;1.70;;;;;;;4.72;100.00;95018.25;5094118;28;20422;-75
2021/12/29 04:17:36;;;;;;;1.70;1.60;;;;;;;4.87;100.00;95039.72;5093991;28;20450;-75
2021/12/29 04:22:51;;;;;;;1.40;1.30;;;;;;;4.87;100.00;95055.41;5093734;28;20475;-75
2021/12/29 04:25:23;;;;;;;1.20;1.00;;;;;;;4.94;100.00;95050.41;5093825;28;20482;-75
2021/12/29 04:27:52;;;;;;;0.90;0.90;;;;;;;4.97;100.00;95068.88;5077317;28;20498;-75
2021/12/29 04:30:20;;;;;;;0.90;0.77;;;;;;;5.12;100.00;95082.47;5093707;28;20487;-75
2021/12/29 04:32:47;;;;;;;0.70;0.70;;;;;;;5.09;100.00;95075.28;5093686;28;20460;-75
2021/12/29 04:35:14;;;;;;;1.10;0.80;;;;;;;5.10;100.00;95082.03;5076997;28;20532;-75
2021/12/29 04:37:41;;;;;;;0.93;0.80;;;;;;;5.17;100.00;95080.41;5093727;28;20454;-75
2021/12/29 04:40:09;;;;;;;0.70;0.70;;;;;;;5.28;100.00;95096.50;5093826;28;21018;-75
2021/12/29 04:42:36;;;;;;;0.77;0.77;;;;;;;5.20;100.00;95084.25;5076898;28;20465;-75
2021/12/29 04:45:04;;;;;;;5.00;1.23;;;;;;;5.36;100.00;95100.16;5093635;28;20980;-75
2021/12/29 04:47:31;;;;;;;1.63;1.53;;;;;;;5.23;100.00;95079.16;5077326;28;20512;-75
2021/12/29 04:50:01;;;;;;;1.70;1.20;;;;;;;5.21;100.00;95089.19;5094123;28;20553;-75
2021/12/29 04:52:30;;;;;;;3.50;3.20;;;;;;;5.39;100.00;95102.13;5093760;28;20430;-75
2021/12/29 04:54:57;;;;;;;5.17;3.73;;;;;;;5.17;100.00;95071.78;5112279;28;20511;-75
2021/12/29 04:57:23;;;;;;;3.20;2.17;;;;;;;5.52;100.00;95104.47;5056645;28;20463;-75
2021/12/29 04:59:50;;;;;;;3.23;2.80;;;;;;;5.34;100.00;95082.91;5091567;28;20428;-75
2021/12/29 05:02:17;;;;;;;2.83;2.63;;;;;;;5.53;100.00;95113.84;5091500;28;20860;-75
2021/12/29 05:04:56;;;;;;;9.17;8.30;;;;;;;5.41;100.00;95105.94;5073382;28;20439;-75
2021/12/29 05:10:08;;;;;;;1.30;1.20;;;;;;;5.40;100.00;95109.66;5073598;28;20455;-75
2021/12/29 05:12:35;;;;;;;1.30;0.80;;;;;;;5.42;100.00;95107.47;5073074;28;20542;-75
2021/12/29 05:15:03;;;;;;;0.80;0.80;;;;;;;5.56;100.00;95133.41;5092634;28;21023;-75
2021/12/29 05:17:29;;;;;;;1.20;1.10;;;;;;;5.55;100.00;95142.34;5077225;28;20466;-75
2021/12/29 05:19:56;;;;;;;1.33;1.20;;;;;;;5.57;100.00;95134.94;5077401;28;20427;-75
2021/12/29 05:22:23;;;;;;;1.30;1.20;;;;;;;5.58;100.00;95146.94;5077083;28;20473;-75
2021/12/29 05:24:49;;;;;;;0.80;0.70;;;;;;;5.59;100.00;95148.47;5076835;28;20480;-75
2021/12/29 05:27:17;;;;;;;1.63;1.53;;;;;;;5.46;100.00;95133.81;5077524;28;20867;-75
2021/12/29 05:29:43;;;;;;;1.77;1.00;;;;;;;5.61;100.00;95151.56;5077137;28;20510;-75
2021/12/29 05:32:10;;;;;;;1.40;0.90;;;;;;;5.65;100.00;95152.44;5077084;28;20663;-75
2021/12/29 05:34:37;;;;;;;0.83;0.83;;;;;;;5.51;100.00;95163.22;5076855;28;20436;-75
2021/12/29 05:37:03;;;;;;;0.90;0.90;;;;;;;5.52;100.00;95150.88;5076698;28;20968;-75
2021/12/29 05:39:30;;;;;;;0.70;0.70;;;;;;;5.39;100.00;95155.31;5094947;28;21050;-75
2021/12/29 05:41:57;;;;;;;0.70;0.70;;;;;;;5.63;100.00;95178.22;5076458;28;20431;-75
2021/12/29 05:44:23;;;;;;;0.80;0.80;;;;;;;5.40;100.00;95180.41;5077180;28;20462;-75
2021/12/29 05:46:50;;;;;;;1.00;1.00;;;;;;;5.48;100.00;95178.81;5076601;28;20474;-75
2021/12/29 05:49:17;;;;;;;1.47;0.80;;;;;;;5.47;100.00;95172.03;5094573;28;20886;-75
2021/12/29 05:51:44;;;;;;;0.90;0.90;;;;;;;5.34;100.00;95164.13;5077018;28;20468;-75
2021/12/29 05:54:13;;;;;;;0.70;0.70;;;;;;;5.47;100.00;95179.88;5076352;28;20436;-75
2021/12/29 05:56:40;;;;;;;0.70;0.70;;;;;;;5.53;100.00;95176.00;5060063;28;20435;-75
2021/12/29 05:59:07;;;;;;;0.80;0.80;;;;;;;5.50;100.00;95172.16;5076711;28;20533;-75
2021/12/29 06:01:33;;;;;;;1.07;0.80;;;;;;;5.51;100.00;95189.44;5076680;28;20551;-75
2021/12/29 06:04:00;;;;;;;0.97;0.80;;;;;;;5.55;100.00;95192.94;5076297;28;20423;-75
2021/12/29 06:06:27;;;;;;;0.70;0.67;;;;;;;5.49;100.00;95183.75;5076066;28;20857;-75
2021/12/29 06:08:53;;;;;;;2.40;1.03;;;;;;;5.60;100.00;95200.59;5075965;28;20867;-75
2021/12/29 06:11:20;;;;;;;0.70;0.70;;;;;;;5.58;100.00;95194.13;5076039;28;20526;-75
2021/12/29 06:13:47;;;;;;;1.23;0.87;;;;;;;5.64;100.00;95213.84;5076049;28;20466;-75
2021/12/29 06:16:13;;;;;;;1.27;1.00;;;;;;;5.51;100.00;95213.03;5076340;28;20461;-75
2021/12/29 06:18:40;;;;;;;1.13;1.03;;;;;;;5.66;100.00;95216.91;5076075;28;20504;-75
2021/12/29 06:21:07;;;;;;;0.80;0.80;;;;;;;5.60;100.00;95211.06;5094075;28;20416;-75
2021/12/29 06:23:33;;;;;;;1.47;1.20;;;;;;;5.79;100.00;95236.06;5076044;28;20955;-75
2021/12/29 06:26:00;;;;;;;0.83;0.80;;;;;;;5.59;100.00;95235.00;5075408;28;20446;-75
2021/12/29 06:28:27;;;;;;;1.37;1.13;;;;;;;5.63;100.00;95241.91;5075064;28;20485;-75
2021/12/29 06:30:54;;;;;;;1.57;0.90;;;;;;;5.74;100.00;95265.88;5075919;28;20637;-75
2021/12/29 06:33:20;;;;;;;1.47;0.83;;;;;;;5.79;100.00;95272.78;5075694;28;20530;-75
2021/12/29 06:35:47;;;;;;;4.03;1.03;;;;;;;5.48;100.00;95239.88;5075709;28;20475;-75
2021/12/29 06:38:13;;;;;;;0.80;0.80;;;;;;;5.79;100.00;95265.69;5075298;28;20455;-75
2021/12/29 06:40:40;;;;;;;0.77;0.70;;;;;;;5.73;100.00;95268.81;5075296;28;20492;-75
2021/12/29 06:43:07;;;;;;;1.53;1.17;;;;;;;5.64;100.00;95255.78;5093445;28;20459;-75
2021/12/29 06:45:33;;;;;;;0.90;0.90;;;;;;;5.60;100.00;95249.63;5075780;28;20478;-75
2021/12/29 06:48:00;;;;;;;1.00;0.80;;;;;;;5.80;100.00;95282.97;5058783;28;20495;-75
2021/12/29 06:50:27;;;;;;;1.00;0.90;;;;;;;5.66;100.00;95271.97;5075447;28;20512;-75
2021/12/29 06:52:55;;;;;;;1.27;0.90;;;;;;;5.76;100.00;95295.19;5093412;28;20824;-75
2021/12/29 06:55:22;;;;;;;0.60;0.60;;;;;;;5.66;100.00;95264.09;5075081;28;20518;-75
2021/12/29 06:57:50;;;;;;;0.90;0.90;;;;;;;5.86;100.00;95305.25;5074989;28;20508;-75
2021/12/29 07:00:17;;;;;;;1.47;1.10;;;;;;;5.67;100.00;95306.81;5075164;28;20439;-75
2021/12/29 07:02:44;;;;;;;2.20;1.20;;;;;;;5.77;100.00;95315.06;5058415;28;20482;-75
2021/12/29 07:05:11;;;;;;;2.10;1.20;;;;;;;5.73;100.00;95310.78;5075284;28;20448;-75
2021/12/29 07:07:38;;;;;;;1.17;1.07;;;;;;;5.69;100.00;95299.41;5074986;28;20558;-75
2021/12/29 07:10:05;;;;;;;1.10;1.00;;;;;;;5.71;100.00;95316.34;5074645;28;20542;-75
2021/12/29 07:12:35;;;;;;;2.60;1.50;;;;;;;5.82;100.00;95338.47;5058614;28;20474;-75
2021/12/29 07:15:02;;;;;;;1.50;1.40;;;;;;;5.83;100.00;95336.63;5074670;28;20489;-75
2021/12/29 07:17:29;;;;;;;3.00;2.70;;;;;;;5.79;100.00;95333.88;5058119;28;20541;-75
2021/12/29 07:19:55;;;;;;;1.10;1.00;;;;;;;5.53;100.00;95297.34;5074976;28;20757;-75
2021/12/29 07:22:23;;;;;;;1.00;0.90;;;;;;;5.80;100.00;95345.91;5074516;28;20465;-75
2021/12/29 07:24:49;;;;;;;3.20;2.60;;;;;;;5.75;100.00;95332.22;5092811;28;21309;-75
2021/12/29 07:27:16;;;;;;;1.10;1.00;;;;;;;5.69;100.00;95323.00;5074984;28;20831;-75
2021/12/29 07:29:43;;;;;;;0.80;0.80;;;;;;;5.73;100.00;95337.00;5074522;28;20479;-75
2021/12/29 07:32:10;;;;;;;0.70;0.67;;;;;;;5.69;100.00;95330.84;5074403;28;20479;-75
2021/12/29 07:34:36;;;;;;;1.00;0.80;;;;;;;5.78;100.00;95350.69;5074298;28;20435;-75
2021/12/29 07:37:03;;;;;;;0.87;0.70;;;;;;;5.89;100.00;95367.59;5091176;28;20436;-75
2021/12/29 07:39:30;;;;;;;1.17;1.07;;;;;;;5.71;100.00;95345.19;5074154;28;20427;-75
2021/12/29 07:41:57;;;;;;;0.93;0.93;;;;;;;5.87;100.00;95377.63;5074478;28;20859;-75
2021/12/29 07:44:29;;;;;;;1.23;0.80;;;;;;;5.84;100.00;95374.88;5059156;28;20861;-75
2021/12/29 07:46:59;;;;;;;0.60;0.60;;;;;;;5.91;100.00;95378.56;5074305;28;20435;-75
2021/12/29 07:49:27;;;;;;;87.87;45.97;;;;;;;5.91;100.00;95378.56;5074605;28;20792;-75
2021/12/29 07:51:54;;;;;;;1.70;1.37;;;;;;;5.82;100.00;95374.44;5074165;28;20459;-75
2021/12/29 07:54:22;;;;;;;1.37;1.27;;;;;;;5.79;100.00;95365.34;5057683;28;20440;-75
2021/12/29 07:56:49;;;;;;;3.20;2.90;;;;;;;5.87;100.00;95387.34;5091044;28;20489;-76
2021/12/29 07:59:16;;;;;;;2.77;1.90;;;;;;;5.73;100.00;95363.22;5074145;28;20427;-75
2021/12/29 08:01:43;;;;;;;1.80;1.33;;;;;;;5.74;100.00;95355.03;5073744;28;20513;-75
2021/12/29 08:04:11;;;;;;;2.50;2.30;;;;;;;5.83;100.00;95389.84;5057267;28;20430;-75
2021/12/29 08:06:37;;;;;;;3.20;1.60;;;;;;;5.87;100.00;95395.22;5074671;28;20439;-75
2021/12/29 08:09:07;;;;;;;0.83;0.83;;;;;;;5.83;100.00;95395.09;5074695;28;20884;-75
2021/12/29 08:11:33;;;;;;;1.00;0.93;;;;;;;5.84;100.00;95391.38;5073654;28;20451;-75
2021/12/29 08:14:00;;;;;;;0.83;0.83;;;;;;;5.80;100.00;95403.59;5091843;28;20435;-76
2021/12/29 08:16:27;;;;;;;1.00;0.90;;;;;;;5.82;100.00;95395.41;5073640;28;20436;-75
2021/12/29 08:18:54;;;;;;;1.20;1.07;;;;;;;5.78;100.00;95418.88;5091887;28;20513;-75
2021/12/29 08:21:20;;;;;;;1.10;1.00;;;;;;;5.79;100.00;95415.19;5073552;28;20459;-76
2021/12/29 08:23:47;;;;;;;1.50;1.07;;;;;;;5.93;100.00;95426.22;5057170;28;20471;-76
2021/12/29 08:26:14;;;;;;;1.20;1.10;;;;;;;5.78;100.00;95416.25;5092050;28;20459;-76
2021/12/29 08:28:41;;;;;;;1.30;1.20;;;;;;;5.77;100.00;95425.22;5057010;28;20527;-76
2021/12/29 08:31:11;;;;;;;1.30;1.20;;;;;;;5.91;100.00;95440.75;5057684;28;20459;-75
2021/12/29 08:33:38;;;;;;;0.93;0.93;;;;;;;5.77;100.00;95437.56;5073570;28;20505;-76
2021/12/29 08:36:08;;;;;;;1.30;1.20;;;;;;;5.88;100.00;95428.25;5090763;28;20449;-76
2021/12/29 08:38:35;;;;;;;1.27;1.17;;;;;;;5.98;100.00;95461.22;5057322;28;20493;-75
2021/12/29 08:41:03;;;;;;;1.40;1.03;;;;;;;6.02;100.00;95464.78;5073493;28;20431;-76
2021/12/29 08:43:31;;;;;;;1.33;1.10;;;;;;;5.99;100.00;95460.91;5073891;28;20471;-75
2021/12/29 08:46:01;;;;;;;1.77;1.00;;;;;;;5.93;100.00;95464.81;5074256;28;20432;-76
2021/12/29 08:48:28;;;;;;;1.00;0.90;;;;;;;5.85;100.00;95455.84;5091779;28;20456;-76
2021/12/29 08:50:59;;;;;;;1.20;1.10;;;;;;;6.07;100.00;95475.06;5076039;28;20497;-75
2021/12/29 08:53:27;;;;;;;1.10;1.00;;;;;;;6.08;100.00;95485.25;5062732;28;20435;-75
2021/12/29 08:55:55;;;;;;;1.67;1.57;;;;;;;5.83;100.00;95463.28;5064830;28;20964;-76
2021/12/29 08:58:24;;;;;;;1.73;1.63;;;;;;;5.91;100.00;95475.63;5097638;28;20553;-76
2021/12/29 09:00:53;;;;;;;1.47;1.37;;;;;;;5.86;100.00;95475.00;5097958;28;20515;-75
2021/12/29 09:03:21;;;;;;;1.40;1.30;;;;;;;5.85;100.00;95465.59;5116160;28;20491;-76
2021/12/29 09:05:48;;;;;;;2.30;1.53;;;;;;;6.05;100.00;95498.25;5080685;28;20461;-76
2021/12/29 09:08:15;;;;;;;0.90;0.90;;;;;;;5.92;100.00;95492.91;5080663;28;20544;-76
2021/12/29 09:10:42;;;;;;;1.40;1.30;;;;;;;5.85;100.00;95468.22;5097202;28;20511;-76
2021/12/29 09:13:09;;;;;;;1.23;1.13;;;;;;;5.86;100.00;95475.00;5097170;28;20814;-76
2021/12/29 09:15:35;;;;;;;1.50;1.40;;;;;;;6.05;100.00;95506.09;5097234;28;20562;-76
2021/12/29 09:18:04;;;;;;;1.30;1.20;;;;;;;5.86;100.00;95472.38;5080559;28;20505;-76
2021/12/29 09:20:33;;;;;;;1.87;1.77;;;;;;;6.06;100.00;95513.66;5097102;28;20437;-76
2021/12/29 09:23:04;;;;;;;1.67;1.57;;;;;;;6.06;100.00;95512.91;5097163;28;20465;-76
2021/12/29 09:25:37;;;;;;;1.63;1.53;;;;;;;6.08;100.00;95518.59;5097156;28;20462;-75
2021/12/29 09:28:05;;;;;;;1.47;1.37;;;;;;;6.00;100.00;95519.38;5097007;28;20511;-75
2021/12/29 09:30:34;;;;;;;1.87;1.47;;;;;;;5.93;100.00;95519.91;5097203;28;20480;-76
2021/12/29 09:33:01;;;;;;;1.70;1.50;;;;;;;5.80;100.00;95511.13;5080113;28;20438;-76
2021/12/29 09:35:28;;;;;;;1.37;1.27;;;;;;;5.98;100.00;95548.56;5097003;28;20436;-76
2021/12/29 09:38:00;;;;;;;1.37;1.27;;;;;;;5.91;100.00;95529.94;5080833;28;20565;-76
2021/12/29 09:40:27;;;;;;;2.30;1.30;;;;;;;5.87;100.00;95531.59;5096754;28;20442;-76
2021/12/29 09:42:54;;;;;;;2.37;1.60;;;;;;;5.93;100.00;95548.75;5079853;28;20434;-76
2021/12/29 09:45:23;;;;;;;3.10;2.60;;;;;;;6.05;100.00;95569.84;5079985;28;20430;-76
2021/12/29 09:47:50;;;;;;;2.17;1.97;;;;;;;5.99;100.00;95542.22;5096744;28;20482;-76
2021/12/29 09:50:19;;;;;;;1.50;1.40;;;;;;;6.04;100.00;95568.31;5079635;28;20458;-76
2021/12/29 09:52:47;;;;;;;1.30;1.20;;;;;;;6.07;100.00;95559.03;5096694;28;20438;-76
2021/12/29 09:55:16;;;;;;;1.23;1.10;;;;;;;5.74;100.00;95504.50;5096555;28;20490;-75
2021/12/29 09:57:46;;;;;;;1.60;1.50;;;;;;;6.09;100.00;95559.47;5079599;28;21005;-76
2021/12/29 10:00:21;;;;;;;1.73;1.60;;;;;;;6.23;100.00;95576.56;5114735;28;20889;-76
2021/12/29 10:02:49;;;;;;;1.10;1.00;;;;;;;6.14;100.00;95554.84;5114431;28;20453;-76
2021/12/29 10:05:16;;;;;;;1.43;1.33;;;;;;;6.31;100.00;95563.72;5079463;28;20462;-76
2021/12/29 10:07:43;;;;;;;1.80;1.70;;;;;;;6.14;100.00;95559.28;5114552;28;20458;-76
2021/12/29 10:10:20;;;;;;;2.13;1.80;;;;;;;6.33;100.00;95569.41;5096062;28;20434;-76
2021/12/29 10:12:48;;;;;;;1.70;1.43;;;;;;;6.16;100.00;95547.41;5096344;28;20418;-76
2021/12/29 10:15:15;;;;;;;1.60;1.50;;;;;;;6.16;100.00;95552.66;5096108;28;20439;-76
2021/12/29 10:17:42;;;;;;;1.70;1.50;;;;;;;6.40;100.00;95567.03;5076670;28;20484;-76
2021/12/29 10:20:14;;;;;;;1.40;1.30;;;;;;;6.32;100.00;95565.25;5092504;28;20774;-76
2021/12/29 10:22:41;;;;;;;4.20;1.93;;;;;;;6.43;100.00;95579.56;5094398;28;20428;-76
2021/12/29 10:25:14;;;;;;;1.43;1.33;;;;;;;6.43;100.00;95575.06;5076487;28;20483;-76
2021/12/29 10:27:41;;;;;;;1.90;1.80;;;;;;;6.39;100.00;95574.16;5075381;28;20455;-76
2021/12/29 10:30:18;;;;;;;1.87;1.57;;;;;;;6.47;100.00;95581.22;5075429;28;20497;-76
2021/12/29 10:32:46;;;;;;;3.33;2.47;;;;;;;6.40;100.00;95572.28;5084642;28;20450;-76
2021/12/29 10:35:28;;;;;;;1.73;1.60;;;;;;;6.34;100.00;95565.69;5095579;28;21006;-76
2021/12/29 10:38:08;;;;;;;2.77;1.57;;;;;;;6.41;100.00;95568.56;5095576;28;20509;-76
2021/12/29 10:40:35;;;;;;;1.67;1.40;;;;;;;6.48;100.00;95584.59;5078416;28;20489;-76
2021/12/29 10:43:03;;;;;;;2.30;1.50;;;;;;;6.52;100.00;95578.41;5074982;28;20467;-76
2021/12/29 10:45:32;;;;;;;1.57;1.47;;;;;;;6.54;100.00;95585.94;5075278;28;20443;-76
2021/12/29 10:48:00;;;;;;;1.40;1.30;;;;;;;6.49;100.00;95580.91;5086190;28;20503;-76
2021/12/29 10:50:29;;;;;;;2.43;1.40;;;;;;;6.47;100.00;95577.81;5095314;27;20479;-77
2021/12/29 10:52:58;;;;;;;1.60;1.10;;;;;;;6.52;100.00;95575.78;5075129;28;20970;-76
2021/12/29 10:55:35;;;;;;;1.33;1.20;;;;;;;6.62;100.00;95573.88;5058444;28;20462;-75
2021/12/29 10:58:11;;;;;;;1.67;1.20;;;;;;;6.66;100.00;95587.91;5082864;28;20520;-76
2021/12/29 11:01:07;;;;;;;1.90;1.30;;;;;;;6.62;100.00;95579.13;5079515;28;20905;-76
2021/12/29 11:03:42;;;;;;;1.33;1.23;;;;;;;6.67;100.00;95599.94;5085045;28;20447;-76
2021/12/29 11:06:14;;;;;;;1.30;1.20;;;;;;;6.54;100.00;95591.19;5093483;28;20472;-75
2021/12/29 11:08:48;;;;;;;1.20;1.10;;;;;;;6.69;100.00;95605.66;5094973;28;20496;-75
2021/12/29 11:11:15;;;;;;;3.20;1.73;;;;;;;6.62;100.00;95610.63;5078060;28;20443;-76
2021/12/29 11:13:42;;;;;;;2.93;1.40;;;;;;;6.65;100.00;95607.38;5083568;28;21024;-76
2021/12/29 11:16:09;;;;;;;1.23;1.13;;;;;;;6.62;100.00;95611.41;5075294;28;20980;-80
2021/12/29 11:18:47;;;;;;;1.47;1.20;;;;;;;6.67;100.00;95615.69;5076966;28;20892;-80
2021/12/29 11:21:33;;;;;;;1.50;1.40;;;;;;;6.64;100.00;95595.31;5065865;28;20439;-80
2021/12/29 11:24:12;;;;;;;2.83;1.30;;;;;;;6.78;100.00;95622.13;5060777;28;20474;-80
2021/12/29 11:26:40;;;;;;;2.10;1.43;;;;;;;6.69;100.00;95603.03;5076945;28;20496;-80
2021/12/29 11:29:13;;;;;;;1.40;1.30;;;;;;;6.74;100.00;95616.75;5097136;28;20512;-81
2021/12/29 11:31:44;;;;;;;1.40;1.30;;;;;;;6.85;100.00;95622.41;5092273;28;21198;-81
2021/12/29 11:34:12;;;;;;;2.73;1.50;;;;;;;6.82;100.00;95612.53;5093791;28;20481;-81
2021/12/29 11:36:39;;;;;;;1.83;1.33;;;;;;;6.80;100.00;95598.94;5079677;28;20490;-84
2021/12/29 11:39:06;;;;;;;0.97;0.90;;;;;;;6.78;100.00;95603.72;5084789;28;20470;-84
2021/12/29 11:41:32;;;;;;;4.33;1.33;;;;;;;6.80;100.00;95596.28;5101350;27;20457;-84
2021/12/29 11:43:59;;;;;;;1.43;1.33;;;;;;;6.71;100.00;95591.13;5102710;27;20455;-84
2021/12/29 11:46:26;;;;;;;1.33;1.00;;;;;;;6.76;100.00;95583.03;5102535;27;20434;-84
2021/12/29 11:48:53;;;;;;;1.40;1.13;;;;;;;6.77;100.00;95599.56;5103162;27;20453;-84